Time;durP1;ratioP1;P1;durP2;ratioP2;P2;SDS_P1;SDS_P2;PMS_P1;PMS_P2;Temp;Humidity;BMP_temperature;BMP_pressure;BME280_temperature;BME280_humidity;BME280_pressure;Samples;Min_cycle;Max_cycle;Signal;HPM_P1;HPM_P2
2022/05/04 00:01:12;;;;;;;4.95;1.85;;;10.00;99.90;;;;;;4863448;29;20032;-82
2022/05/04 00:03:39;;;;;;;6.68;2.28;;;10.00;99.90;;;;;;4863386;29;20036;-85
2022/05/04 00:06:09;;;;;;;4.68;1.77;;;10.00;99.90;;;;;;4863294;29;20032;-83
2022/05/04 00:08:38;;;;;;;6.35;2.30;;;10.00;99.90;;;;;;4862972;29;20017;-83
2022/05/04 00:11:04;;;;;;;5.28;1.90;;;10.00;99.90;;;;;;4878440;29;20116;-84
2022/05/04 00:13:31;;;;;;;4.93;1.70;;;10.00;99.90;;;;;;4862100;29;20083;-83
2022/05/04 00:15:57;;;;;;;7.28;2.10;;;9.90;99.90;;;;;;4878861;29;20556;-83
2022/05/04 00:18:23;;;;;;;7.35;2.42;;;9.90;99.90;;;;;;4878857;29;20404;-84
2022/05/04 00:20:49;;;;;;;8.43;2.88;;;10.00;99.90;;;;;;4877113;29;20021;-83
2022/05/04 00:23:14;;;;;;;9.50;2.97;;;9.90;99.90;;;;;;4861777;29;20036;-83
2022/05/04 00:25:40;;;;;;;6.07;2.80;;;9.90;99.90;;;;;;4879974;29;20049;-82
2022/05/04 00:28:06;;;;;;;5.53;1.98;;;9.90;99.90;;;;;;4862919;29;20024;-84
2022/05/04 00:30:32;;;;;;;5.20;2.60;;;9.80;99.90;;;;;;4879213;29;20039;-83
2022/05/04 00:32:59;;;;;;;4.38;1.90;;;9.80;99.90;;;;;;4878287;29;20029;-83
2022/05/04 00:35:24;;;;;;;6.13;2.33;;;9.80;99.90;;;;;;4879183;29;20040;-83
2022/05/04 00:37:50;;;;;;;6.47;1.73;;;9.80;99.90;;;;;;4879315;29;20037;-83
2022/05/04 00:40:16;;;;;;;6.90;2.40;;;9.80;99.90;;;;;;4862906;29;20522;-82
2022/05/04 00:42:41;;;;;;;6.30;2.17;;;9.80;99.90;;;;;;4862373;29;20061;-83
2022/05/04 00:45:07;;;;;;;6.03;1.90;;;9.80;99.90;;;;;;4862590;29;20032;-83
2022/05/04 00:47:33;;;;;;;5.65;1.85;;;9.80;99.90;;;;;;4879111;29;20025;-82
2022/05/04 00:50:04;;;;;;;6.85;2.00;;;9.80;99.90;;;;;;4862517;29;20032;-82
2022/05/04 00:52:32;;;;;;;4.05;1.70;;;9.80;99.90;;;;;;4878981;29;20053;-82
2022/05/04 00:54:59;;;;;;;4.30;1.77;;;9.80;99.90;;;;;;4862155;29;20033;-84
2022/05/04 01:00:11;;;;;;;5.75;1.98;;;9.80;99.90;;;;;;4879368;29;20490;-83
2022/05/04 01:02:38;;;;;;;6.75;2.10;;;9.80;99.90;;;;;;4878030;29;20391;-83
2022/05/04 01:05:05;;;;;;;6.28;2.10;;;9.80;99.90;;;;;;4862274;29;20309;-83
2022/05/04 01:07:31;;;;;;;5.65;1.75;;;9.80;99.90;;;;;;4878716;29;20052;-83
2022/05/04 01:09:57;;;;;;;6.60;2.05;;;9.80;99.90;;;;;;4878635;29;20384;-82
2022/05/04 01:12:23;;;;;;;5.55;1.98;;;9.80;99.90;;;;;;4862161;29;20029;-83
2022/05/04 01:14:49;;;;;;;6.10;1.90;;;9.80;99.90;;;;;;4879205;29;20025;-84
2022/05/04 01:17:14;;;;;;;4.15;1.80;;;9.70;99.90;;;;;;4862061;29;20508;-82
2022/05/04 01:19:40;;;;;;;6.72;2.03;;;9.70;99.90;;;;;;4879118;29;20029;-84
2022/05/04 01:22:06;;;;;;;6.40;1.98;;;9.80;99.90;;;;;;4877419;29;20028;-83
2022/05/04 01:24:31;;;;;;;5.30;1.80;;;9.70;99.90;;;;;;4877560;29;20400;-83
2022/05/04 01:26:57;;;;;;;6.00;2.13;;;9.70;99.90;;;;;;4878818;29;20033;-83
2022/05/04 01:29:22;;;;;;;5.97;1.83;;;9.70;99.90;;;;;;4878743;29;20029;-83
2022/05/04 01:31:48;;;;;;;4.05;2.03;;;9.60;99.90;;;;;;4878657;29;20446;-84
2022/05/04 01:34:14;;;;;;;6.78;1.92;;;9.60;99.90;;;;;;4882340;29;20030;-82
2022/05/04 01:36:40;;;;;;;9.10;2.42;;;9.60;99.90;;;;;;4882106;29;20025;-83
2022/05/04 01:39:05;;;;;;;7.68;1.92;;;9.60;99.90;;;;;;4882184;29;20029;-83
2022/05/04 01:44:15;;;;;;;6.82;2.08;;;9.60;99.90;;;;;;4882507;29;20539;-83
2022/05/04 01:46:41;;;;;;;5.63;1.80;;;9.60;99.90;;;;;;4882049;29;20104;-84
2022/05/04 01:49:06;;;;;;;5.57;2.08;;;9.60;99.90;;;;;;4882152;29;20036;-83
2022/05/04 01:51:32;;;;;;;6.88;2.20;;;9.60;99.90;;;;;;4882352;29;20104;-83
2022/05/04 01:53:58;;;;;;;6.00;2.38;;;9.50;99.90;;;;;;4881839;29;20057;-83
2022/05/04 01:56:23;;;;;;;5.25;1.85;;;9.50;99.90;;;;;;4881926;29;20388;-84
2022/05/04 01:58:49;;;;;;;7.30;2.15;;;9.50;99.90;;;;;;4882131;29;20547;-83
2022/05/04 02:01:15;;;;;;;4.68;1.88;;;9.50;99.90;;;;;;4864861;29;20037;-83
2022/05/04 02:03:41;;;;;;;6.68;1.95;;;9.50;99.90;;;;;;4865180;29;20551;-83
2022/05/04 02:06:07;;;;;;;4.22;1.70;;;9.50;99.90;;;;;;4865145;29;20026;-83
2022/05/04 02:08:33;;;;;;;6.47;2.22;;;9.40;99.90;;;;;;4881485;29;20037;-83
2022/05/04 02:10:59;;;;;;;7.43;2.25;;;9.40;99.90;;;;;;4880515;29;20164;-84
2022/05/04 02:13:25;;;;;;;5.22;1.98;;;9.40;99.90;;;;;;4881812;29;20505;-83
2022/05/04 02:15:51;;;;;;;6.25;2.05;;;9.40;99.90;;;;;;4865274;29;20092;-83
2022/05/04 02:18:16;;;;;;;10.00;2.50;;;9.40;99.90;;;;;;4864787;29;20041;-82
2022/05/04 02:20:42;;;;;;;4.60;1.70;;;9.40;99.90;;;;;;4881467;29;20077;-83
2022/05/04 02:23:07;;;;;;;6.13;2.00;;;9.40;99.90;;;;;;4864823;29;20421;-82
2022/05/04 02:25:33;;;;;;;4.93;1.50;;;9.30;99.90;;;;;;4864874;29;20033;-83
2022/05/04 02:27:58;;;;;;;4.60;1.83;;;9.30;99.90;;;;;;4865091;29;20031;-83
2022/05/04 02:30:24;;;;;;;4.18;1.55;;;9.30;99.90;;;;;;4881319;29;20037;-83
2022/05/04 02:32:50;;;;;;;6.43;1.90;;;9.40;99.90;;;;;;4881354;29;20029;-83
2022/05/04 02:38:00;;;;;;;6.10;2.45;;;9.30;99.90;;;;;;4881475;29;20109;-82
2022/05/04 02:40:26;;;;;;;8.90;2.53;;;9.30;99.90;;;;;;4879804;29;20052;-84
2022/05/04 02:42:52;;;;;;;7.63;2.30;;;9.30;99.90;;;;;;4881140;29;20061;-83
2022/05/04 02:45:18;;;;;;;6.30;2.50;;;9.20;99.90;;;;;;4863715;29;20029;-83
2022/05/04 02:47:44;;;;;;;5.75;2.42;;;9.20;99.90;;;;;;4882323;29;20029;-83
2022/05/04 02:50:09;;;;;;;7.53;2.70;;;9.20;99.90;;;;;;4884396;29;20036;-83
2022/05/04 02:52:35;;;;;;;7.95;2.42;;;9.20;99.90;;;;;;4881547;29;20491;-84
2022/05/04 02:55:01;;;;;;;7.47;2.80;;;9.10;99.90;;;;;;4867218;29;20084;-83
2022/05/04 02:57:27;;;;;;;5.15;1.98;;;9.10;99.90;;;;;;4864450;29;20080;-83
2022/05/04 02:59:52;;;;;;;7.78;2.28;;;9.10;99.90;;;;;;4864364;29;20379;-83
2022/05/04 03:02:27;;;;;;;7.10;2.13;;;9.10;99.90;;;;;;4864520;29;20388;-84
2022/05/04 03:05:06;;;;;;;4.82;1.88;;;9.10;99.90;;;;;;4864703;29;20037;-82
2022/05/04 03:07:32;;;;;;;6.93;1.65;;;9.10;99.90;;;;;;4880703;29;20207;-82
2022/05/04 03:09:58;;;;;;;5.20;2.20;;;9.00;99.90;;;;;;4880723;29;20025;-83
2022/05/04 03:12:25;;;;;;;5.10;1.95;;;9.00;99.90;;;;;;4880632;29;20056;-82
2022/05/04 03:14:51;;;;;;;7.38;2.75;;;9.00;99.90;;;;;;4879472;29;20061;-84
2022/05/04 03:17:17;;;;;;;4.57;2.05;;;9.00;99.90;;;;;;4864091;29;20065;-83
2022/05/04 03:19:43;;;;;;;4.10;1.85;;;8.90;99.90;;;;;;4880531;29;20029;-84
2022/05/04 03:22:09;;;;;;;4.63;2.00;;;8.90;99.90;;;;;;4864819;29;20037;-84
2022/05/04 03:24:35;;;;;;;8.63;2.58;;;8.90;99.90;;;;;;4864481;29;20033;-83
2022/05/04 03:27:01;;;;;;;7.85;2.15;;;8.90;99.90;;;;;;4863811;29;20025;-83
2022/05/04 03:29:27;;;;;;;5.15;2.35;;;8.80;99.90;;;;;;4880461;29;20100;-83
2022/05/04 03:31:52;;;;;;;9.45;2.53;;;8.80;99.90;;;;;;4880336;29;20116;-84
2022/05/04 03:34:18;;;;;;;4.53;1.80;;;8.80;99.90;;;;;;4880305;29;20029;-84
2022/05/04 03:36:44;;;;;;;7.55;2.28;;;8.70;99.90;;;;;;4880202;29;20503;-84
2022/05/04 03:39:10;;;;;;;6.57;2.08;;;8.70;99.90;;;;;;4863263;29;20036;-84
2022/05/04 03:41:36;;;;;;;6.80;2.50;;;8.70;99.90;;;;;;4879956;29;20033;-83
2022/05/04 03:44:02;;;;;;;7.20;2.92;;;8.70;99.90;;;;;;4880101;29;20065;-84
2022/05/04 03:46:39;;;;;;;8.02;2.22;;;8.70;99.90;;;;;;4863388;29;20483;-83
2022/05/04 03:49:07;;;;;;;7.43;2.70;;;8.60;99.90;;;;;;4863053;29;20026;-83
2022/05/04 03:51:33;;;;;;;5.47;1.95;;;8.60;99.90;;;;;;4863270;29;20472;-83
2022/05/04 03:53:59;;;;;;;5.95;2.10;;;8.60;99.90;;;;;;4879656;29;20045;-84
2022/05/04 03:56:24;;;;;;;3.42;1.95;;;8.60;99.90;;;;;;4879983;29;20060;-82
2022/05/04 03:58:50;;;;;;;5.20;2.33;;;8.60;99.90;;;;;;4863280;29;20032;-83
2022/05/04 04:01:17;;;;;;;6.65;2.35;;;8.60;99.90;;;;;;4863527;29;20032;-83
2022/05/04 04:03:42;;;;;;;4.80;2.00;;;8.60;99.90;;;;;;4863091;29;20032;-82
2022/05/04 04:06:08;;;;;;;4.53;2.03;;;8.60;99.90;;;;;;4863025;29;20393;-83
2022/05/04 04:08:36;;;;;;;5.63;2.08;;;8.60;99.90;;;;;;4863030;29;20065;-83
2022/05/04 04:11:05;;;;;;;4.85;2.25;;;8.60;99.90;;;;;;4878504;29;20048;-82
2022/05/04 04:13:31;;;;;;;6.25;2.28;;;8.60;99.90;;;;;;4863026;29;20029;-82
2022/05/04 04:15:57;;;;;;;5.70;2.42;;;8.50;99.90;;;;;;4879716;29;20025;-83
2022/05/04 04:18:24;;;;;;;5.53;2.13;;;8.50;99.90;;;;;;4862699;29;20451;-83
2022/05/04 04:23:35;;;;;;;7.45;1.95;;;8.50;99.90;;;;;;4880368;29;20136;-82
2022/05/04 04:26:02;;;;;;;5.70;2.00;;;8.40;99.90;;;;;;4879697;29;20093;-83
2022/05/04 04:28:28;;;;;;;4.07;1.95;;;8.40;99.90;;;;;;4862740;29;20017;-82
2022/05/04 04:30:54;;;;;;;4.85;1.90;;;8.40;99.90;;;;;;4879288;29;20032;-83
2022/05/04 04:33:24;;;;;;;4.07;1.63;;;8.40;99.90;;;;;;4879395;29;20534;-83
2022/05/04 04:35:51;;;;;;;4.88;1.98;;;8.40;99.90;;;;;;4863435;29;20025;-83
2022/05/04 04:38:17;;;;;;;5.22;1.98;;;8.30;99.90;;;;;;4863220;29;20092;-82
2022/05/04 04:40:42;;;;;;;8.35;2.28;;;8.30;99.90;;;;;;4860293;29;20028;-82
2022/05/04 04:43:08;;;;;;;4.75;1.98;;;8.30;99.90;;;;;;4859528;29;20029;-81
2022/05/04 04:45:37;;;;;;;4.65;1.88;;;8.20;99.90;;;;;;4875953;29;20037;-81
2022/05/04 04:48:03;;;;;;;7.38;2.22;;;8.20;99.90;;;;;;4859439;29;20080;-82
2022/05/04 04:50:28;;;;;;;4.85;1.75;;;8.20;99.90;;;;;;4859718;29;20032;-81
2022/05/04 04:52:54;;;;;;;6.13;2.35;;;8.10;99.90;;;;;;4875371;29;20056;-81
2022/05/04 04:55:20;;;;;;;6.68;2.42;;;8.10;99.90;;;;;;4875529;29;20044;-80
2022/05/04 04:57:45;;;;;;;5.90;2.05;;;8.10;99.90;;;;;;4873666;29;20551;-81
2022/05/04 05:00:12;;;;;;;4.97;2.00;;;8.00;99.90;;;;;;4874577;29;20053;-82
2022/05/04 05:02:37;;;;;;;4.50;1.63;;;8.00;99.90;;;;;;4874354;29;20061;-82
2022/05/04 05:05:03;;;;;;;8.10;1.90;;;8.00;99.90;;;;;;4873964;29;20433;-81
2022/05/04 05:07:30;;;;;;;5.68;2.00;;;8.00;99.90;;;;;;4875513;29;20049;-81
2022/05/04 05:09:56;;;;;;;7.78;1.88;;;8.10;99.90;;;;;;4878122;29;20053;-80
2022/05/04 05:12:24;;;;;;;3.65;1.70;;;8.10;99.90;;;;;;4878866;29;20037;-82
2022/05/04 05:17:35;;;;;;;7.22;2.90;;;8.10;99.90;;;;;;4878649;29;20453;-82
2022/05/04 05:20:02;;;;;;;6.13;2.15;;;8.10;99.90;;;;;;4879331;29;20032;-84
2022/05/04 05:22:28;;;;;;;5.82;1.95;;;8.20;99.90;;;;;;4878394;29;20048;-82
2022/05/04 05:24:54;;;;;;;8.13;2.80;;;8.20;99.90;;;;;;4878423;29;20132;-82
2022/05/04 05:27:22;;;;;;;9.32;2.72;;;8.20;99.90;;;;;;4878303;29;20033;-83
2022/05/04 05:29:48;;;;;;;7.90;1.85;;;8.20;99.90;;;;;;4879643;29;20028;-83
2022/05/04 05:32:13;;;;;;;8.02;2.25;;;8.20;99.90;;;;;;4878350;29;20112;-81
2022/05/04 05:34:39;;;;;;;6.32;2.33;;;8.30;99.90;;;;;;4878152;29;20029;-81
2022/05/04 05:37:04;;;;;;;5.50;1.73;;;8.30;99.90;;;;;;4862654;29;20056;-82
2022/05/04 05:39:30;;;;;;;4.43;1.88;;;8.30;99.90;;;;;;4879652;29;20048;-81
2022/05/04 05:41:56;;;;;;;4.50;1.90;;;8.30;99.90;;;;;;4879397;29;20072;-81
2022/05/04 05:44:21;;;;;;;4.05;2.15;;;8.30;99.90;;;;;;4879097;29;20574;-80
2022/05/04 05:46:47;;;;;;;8.35;2.28;;;8.30;99.90;;;;;;4861964;29;20032;-82
2022/05/04 05:49:13;;;;;;;8.38;2.30;;;8.50;99.90;;;;;;4878013;29;20025;-81
2022/05/04 05:51:38;;;;;;;4.13;1.92;;;8.40;99.90;;;;;;4879464;29;20037;-81
2022/05/04 05:54:04;;;;;;;4.13;1.90;;;8.50;99.90;;;;;;4877483;29;20390;-81
2022/05/04 05:56:29;;;;;;;5.80;2.30;;;8.50;99.90;;;;;;4879637;29;20077;-84
2022/05/04 05:58:55;;;;;;;6.32;2.30;;;8.60;99.90;;;;;;4879511;29;20029;-82
2022/05/04 06:01:21;;;;;;;6.43;1.77;;;8.60;99.90;;;;;;4881043;29;20140;-83
2022/05/04 06:03:46;;;;;;;7.75;2.90;;;8.60;99.90;;;;;;4882143;29;20567;-82
2022/05/04 06:06:12;;;;;;;4.10;1.80;;;8.70;99.90;;;;;;4880821;29;20057;-82
2022/05/04 06:08:38;;;;;;;5.80;1.92;;;8.70;99.90;;;;;;4880704;29;20429;-82
2022/05/04 06:11:04;;;;;;;9.32;2.42;;;8.80;99.90;;;;;;4880910;29;20540;-84
2022/05/04 06:13:30;;;;;;;8.73;2.20;;;8.80;99.90;;;;;;4865758;29;20032;-83
2022/05/04 06:15:56;;;;;;;7.05;2.55;;;8.80;99.90;;;;;;4881061;29;20033;-82
2022/05/04 06:18:22;;;;;;;5.35;1.85;;;8.90;99.90;;;;;;4880068;29;20045;-83
2022/05/04 06:20:47;;;;;;;6.45;2.28;;;8.90;99.90;;;;;;4881685;29;20032;-83
2022/05/04 06:23:13;;;;;;;7.40;2.42;;;8.90;99.90;;;;;;4882011;29;20057;-84
2022/05/04 06:25:41;;;;;;;4.95;1.70;;;9.00;99.90;;;;;;4882041;29;20025;-82
2022/05/04 06:28:06;;;;;;;7.25;2.22;;;9.00;99.90;;;;;;4880916;29;20029;-84
2022/05/04 06:36:01;;;;;;;5.43;1.90;;;9.10;99.90;;;;;;4883131;29;20065;-85
2022/05/04 06:38:27;;;;;;;7.43;2.80;;;9.10;99.90;;;;;;4865554;29;20033;-82
2022/05/04 06:40:53;;;;;;;7.05;1.98;;;9.20;99.90;;;;;;4880753;29;20108;-83
2022/05/04 06:43:19;;;;;;;8.77;2.50;;;9.20;99.90;;;;;;4880652;29;20037;-84
2022/05/04 06:45:45;;;;;;;5.07;2.05;;;9.30;99.90;;;;;;4880695;29;20434;-84
2022/05/04 06:48:10;;;;;;;6.75;2.08;;;9.30;99.90;;;;;;4882265;29;20025;-84
2022/05/04 06:50:36;;;;;;;5.22;1.85;;;9.40;99.90;;;;;;4881130;29;20017;-85
2022/05/04 06:53:02;;;;;;;9.90;2.47;;;9.40;99.90;;;;;;4877333;29;20065;-84
2022/05/04 06:55:27;;;;;;;5.57;1.83;;;9.50;99.90;;;;;;4863291;29;20056;-85
2022/05/04 06:57:53;;;;;;;4.15;1.77;;;9.50;99.90;;;;;;4877841;29;20034;-84
2022/05/04 07:00:19;;;;;;;5.72;2.00;;;9.60;99.90;;;;;;4862016;29;20032;-85
2022/05/04 07:02:44;;;;;;;4.35;1.80;;;9.60;99.90;;;;;;4877710;29;20378;-85
2022/05/04 07:05:10;;;;;;;4.43;1.80;;;9.70;99.90;;;;;;4863510;29;20468;-87
2022/05/04 07:07:35;;;;;;;7.88;1.90;;;9.70;99.90;;;;;;4863082;29;20045;-84
2022/05/04 07:10:02;;;;;;;8.30;2.20;;;9.70;99.90;;;;;;4877432;29;20026;-84
2022/05/04 07:12:28;;;;;;;5.25;1.85;;;9.80;99.90;;;;;;4880043;29;20106;-82
2022/05/04 07:14:55;;;;;;;5.07;1.80;;;9.80;99.90;;;;;;4878020;29;20018;-83
2022/05/04 07:17:24;;;;;;;5.15;1.42;;;9.90;99.90;;;;;;4877155;29;20038;-83
2022/05/04 07:19:50;;;;;;;4.55;1.30;;;10.00;99.90;;;;;;4862549;29;20045;-82
2022/05/04 07:22:17;;;;;;;4.65;1.50;;;10.00;99.90;;;;;;4862567;29;20033;-84
2022/05/04 07:24:42;;;;;;;4.38;2.10;;;10.10;99.90;;;;;;4861356;29;20079;-82
2022/05/04 07:27:08;;;;;;;4.15;1.52;;;10.10;99.90;;;;;;4862383;29;20022;-83
2022/05/04 07:29:34;;;;;;;3.95;1.75;;;10.10;99.90;;;;;;4862287;29;20033;-83
2022/05/04 07:32:03;;;;;;;5.18;1.85;;;10.20;99.90;;;;;;4876215;29;20108;-83
2022/05/04 07:34:29;;;;;;;8.15;1.98;;;10.20;99.90;;;;;;4876348;29;20060;-84
2022/05/04 07:36:56;;;;;;;4.22;1.52;;;10.20;99.90;;;;;;4862418;29;20037;-84
2022/05/04 07:42:24;;;;;;;4.25;1.83;;;10.30;99.90;;;;;;4862129;29;20088;-82
2022/05/04 07:44:51;;;;;;;3.78;1.10;;;10.30;99.90;;;;;;4862042;29;20022;-82
2022/05/04 07:47:18;;;;;;;3.58;1.50;;;10.40;99.90;;;;;;4876458;29;20495;-83
2022/05/04 07:49:43;;;;;;;4.70;1.58;;;10.50;99.90;;;;;;4861926;29;20026;-81
2022/05/04 07:52:09;;;;;;;5.22;1.70;;;10.60;99.90;;;;;;4875919;29;20032;-82
2022/05/04 07:54:34;;;;;;;3.67;1.80;;;10.60;99.90;;;;;;4880309;29;20053;-83
2022/05/04 07:57:00;;;;;;;5.25;1.60;;;10.70;99.90;;;;;;4863728;29;20040;-84
2022/05/04 07:59:26;;;;;;;4.35;1.60;;;10.80;99.90;;;;;;4880502;29;20080;-83
2022/05/04 08:04:35;;;;;;;5.38;1.80;;;10.90;99.90;;;;;;4880143;29;20043;-83
2022/05/04 08:07:01;;;;;;;3.08;1.65;;;10.90;99.90;;;;;;4880178;29;20100;-82
2022/05/04 08:09:27;;;;;;;5.32;2.28;;;11.00;99.90;;;;;;4878203;29;20433;-82
2022/05/04 08:11:53;;;;;;;4.95;1.90;;;11.00;99.90;;;;;;4875466;29;20025;-82
2022/05/04 08:14:19;;;;;;;5.57;2.05;;;11.10;99.90;;;;;;4857671;29;20025;-83
2022/05/04 08:16:45;;;;;;;5.07;1.48;;;11.10;99.90;;;;;;4877937;29;20051;-83
2022/05/04 08:19:10;;;;;;;7.13;2.60;;;11.10;99.90;;;;;;4878786;29;20033;-83
2022/05/04 08:21:37;;;;;;;4.10;2.10;;;11.20;99.90;;;;;;4883183;29;20028;-84
2022/05/04 08:24:04;;;;;;;8.65;2.42;;;11.30;99.90;;;;;;4880137;29;20111;-83
2022/05/04 08:26:30;;;;;;;7.38;2.60;;;11.40;99.90;;;;;;4879244;29;20030;-83
2022/05/04 08:28:55;;;;;;;4.10;1.98;;;11.50;99.90;;;;;;4877952;29;20051;-83
2022/05/04 08:31:24;;;;;;;4.93;2.38;;;11.50;99.90;;;;;;4887842;29;20033;-84
2022/05/04 08:33:50;;;;;;;3.95;1.83;;;11.60;99.90;;;;;;4870505;29;20036;-84
2022/05/04 08:36:16;;;;;;;3.63;1.67;;;11.70;99.90;;;;;;4880960;29;20022;-83
2022/05/04 08:38:42;;;;;;;4.75;2.03;;;11.70;99.90;;;;;;4876739;29;20398;-82
2022/05/04 08:41:07;;;;;;;5.47;1.85;;;11.80;99.90;;;;;;4878174;29;20036;-83
2022/05/04 08:43:37;;;;;;;4.32;1.50;;;11.90;99.90;;;;;;4882215;29;20040;-84
2022/05/04 08:46:03;;;;;;;3.67;1.67;;;11.90;99.90;;;;;;4885962;29;20029;-84
2022/05/04 08:48:33;;;;;;;3.45;1.75;;;12.10;99.90;;;;;;4882820;29;20036;-83
2022/05/04 08:51:05;;;;;;;6.38;1.90;;;12.10;99.90;;;;;;4880202;29;20035;-83
2022/05/04 08:53:32;;;;;;;6.13;2.40;;;12.20;99.90;;;;;;4886488;29;20053;-83
2022/05/04 08:55:58;;;;;;;5.13;2.65;;;12.30;99.90;;;;;;4877726;29;20465;-84
2022/05/04 08:58:24;;;;;;;6.07;2.55;;;12.40;99.90;;;;;;4882974;29;20827;-84
2022/05/04 09:00:50;;;;;;;9.85;2.88;;;12.50;99.90;;;;;;4876528;29;20116;-84
2022/05/04 09:03:15;;;;;;;4.43;2.22;;;12.70;99.90;;;;;;4878859;29;20027;-84
2022/05/04 09:05:47;;;;;;;7.38;2.20;;;12.80;99.90;;;;;;4879461;29;20025;-83
2022/05/04 09:08:12;;;;;;;5.03;2.00;;;12.90;99.90;;;;;;4879473;29;20032;-83
2022/05/04 09:10:44;;;;;;;3.42;1.92;;;13.00;99.90;;;;;;4880718;29;20480;-83
2022/05/04 09:13:10;;;;;;;4.07;2.28;;;13.20;99.90;;;;;;4872021;29;20381;-82
2022/05/04 09:15:40;;;;;;;4.38;1.80;;;13.20;99.90;;;;;;4881867;29;20033;-84
2022/05/04 09:18:07;;;;;;;4.70;2.00;;;13.30;99.90;;;;;;4880799;29;20029;-84
2022/05/04 09:21:18;;;;;;;3.80;1.75;;;13.30;99.90;;;;;;4896764;29;20085;-83
2022/05/04 09:23:36;;;;;;;5.75;1.83;;;13.40;99.90;;;;;;4867620;29;20048;-85
2022/05/04 09:26:07;;;;;;;5.55;1.80;;;13.50;99.90;;;;;;4879180;29;20052;-84
2022/05/04 09:28:35;;;;;;;5.28;2.00;;;13.70;99.90;;;;;;4879159;29;20061;-83
2022/05/04 09:31:06;;;;;;;6.68;2.35;;;13.80;99.90;;;;;;4878225;29;20018;-82
2022/05/04 09:33:35;;;;;;;5.55;2.25;;;14.20;99.90;;;;;;4888434;29;20048;-83
2022/05/04 09:36:05;;;;;;;4.65;1.80;;;15.20;99.70;;;;;;4878808;29;20377;-85
2022/05/04 09:46:50;;;;;;;5.25;1.63;;;19.40;95.90;;;;;;4881123;29;20048;-85
2022/05/04 09:49:18;;;;;;;7.57;2.05;;;20.10;95.10;;;;;;4879745;29;20025;-83
2022/05/04 09:51:49;;;;;;;6.65;1.85;;;20.40;94.00;;;;;;4880949;29;20472;-84
2022/05/04 09:54:27;;;;;;;7.70;2.50;;;20.70;93.20;;;;;;4892829;29;20049;-80
2022/05/04 09:56:55;;;;;;;6.47;2.42;;;20.90;92.00;;;;;;4897025;29;20067;-83
2022/05/04 09:59:31;;;;;;;5.78;2.28;;;21.10;91.50;;;;;;4897647;29;20468;-84
2022/05/04 10:01:59;;;;;;;5.45;1.92;;;21.40;91.00;;;;;;4901612;29;20045;-83
2022/05/04 10:04:26;;;;;;;6.38;1.95;;;21.90;91.00;;;;;;4875411;29;20026;-85
2022/05/04 10:06:55;;;;;;;6.35;1.92;;;22.50;90.40;;;;;;4887084;29;20089;-85
2022/05/04 10:09:22;;;;;;;5.57;1.95;;;22.90;89.90;;;;;;4898409;29;20005;-86
2022/05/04 10:11:57;;;;;;;4.68;1.92;;;23.20;88.70;;;;;;4905155;29;20123;-85
2022/05/04 10:14:24;;;;;;;5.50;2.20;;;23.30;86.50;;;;;;4904878;29;20081;-84
2022/05/04 10:17:00;;;;;;;4.38;2.03;;;23.30;84.30;;;;;;4897248;29;20025;-85
2022/05/04 10:19:33;;;;;;;4.90;2.20;;;23.30;84.90;;;;;;4912664;29;20109;-83
2022/05/04 10:22:00;;;;;;;4.93;2.35;;;23.30;84.90;;;;;;4897265;29;20043;-83
2022/05/04 10:24:30;;;;;;;6.18;2.28;;;23.40;84.60;;;;;;4896408;29;20048;-83
2022/05/04 10:27:15;;;;;;;5.10;1.95;;;23.40;83.20;;;;;;4891544;29;20112;-83
2022/05/04 10:32:31;;;;;;;7.10;3.10;;;23.70;81.40;;;;;;4897209;29;20023;-82
2022/05/04 10:35:15;;;;;;;7.55;2.60;;;23.50;80.10;;;;;;4895499;29;20056;-83
2022/05/04 10:37:59;;;;;;;5.72;2.60;;;23.30;79.60;;;;;;4896840;29;20044;-84
2022/05/04 10:40:32;;;;;;;7.15;3.15;;;23.50;80.50;;;;;;4904856;29;20462;-83
2022/05/04 10:43:05;;;;;;;6.55;2.38;;;23.50;78.60;;;;;;4882522;29;20056;-82
2022/05/04 10:45:36;;;;;;;7.65;2.30;;;23.60;78.60;;;;;;4885409;29;20069;-84
2022/05/04 10:48:17;;;;;;;7.53;2.38;;;24.00;77.80;;;;;;4893806;29;20056;-83
2022/05/04 10:50:57;;;;;;;7.45;2.38;;;24.20;77.90;;;;;;4878207;29;20566;-83
2022/05/04 10:53:26;;;;;;;5.88;2.08;;;24.50;77.10;;;;;;4881113;29;20095;-83
2022/05/04 10:56:04;;;;;;;7.18;2.95;;;24.90;76.90;;;;;;4887011;29;20030;-83
2022/05/04 10:58:49;;;;;;;6.85;2.85;;;25.00;75.50;;;;;;4881013;29;20101;-82
2022/05/04 11:01:25;;;;;;;4.95;2.88;;;25.10;74.70;;;;;;4869444;29;20029;-84
2022/05/04 11:04:17;;;;;;;7.05;2.70;;;25.10;74.40;;;;;;4881600;29;20021;-83
2022/05/04 11:06:49;;;;;;;10.13;3.40;;;25.00;73.90;;;;;;4879046;29;20029;-82
2022/05/04 11:09:19;;;;;;;6.35;2.78;;;25.00;72.90;;;;;;4881125;29;20041;-83
2022/05/04 11:11:47;;;;;;;5.50;2.50;;;24.90;73.10;;;;;;4881519;29;20021;-83
2022/05/04 11:14:15;;;;;;;5.07;2.50;;;25.20;72.80;;;;;;4877864;29;20052;-83
2022/05/04 11:16:42;;;;;;;8.23;2.78;;;25.60;72.10;;;;;;4892961;29;20036;-82
2022/05/04 11:19:08;;;;;;;5.60;2.63;;;25.80;72.30;;;;;;4880403;29;20064;-83
2022/05/04 11:21:39;;;;;;;9.80;3.17;;;25.70;70.00;;;;;;4880448;29;20197;-83
2022/05/04 11:24:15;;;;;;;5.97;2.90;;;25.60;70.80;;;;;;4879981;29;20064;-83
2022/05/04 11:26:43;;;;;;;5.30;2.50;;;25.50;71.30;;;;;;4893007;29;20436;-85
2022/05/04 11:29:17;;;;;;;5.85;2.80;;;25.60;71.00;;;;;;4876628;29;20022;-83
2022/05/04 11:31:52;;;;;;;5.60;2.25;;;25.70;70.90;;;;;;4871150;29;20085;-84
2022/05/04 11:34:18;;;;;;;7.80;3.22;;;25.90;70.30;;;;;;4880290;29;20025;-82
2022/05/04 11:36:46;;;;;;;6.82;3.50;;;25.80;67.70;;;;;;4881077;29;20037;-83
2022/05/04 11:39:17;;;;;;;5.80;2.97;;;25.80;68.20;;;;;;4882066;29;20448;-82
2022/05/04 11:41:47;;;;;;;9.35;3.25;;;26.10;68.40;;;;;;4879339;29;20080;-82
2022/05/04 11:44:14;;;;;;;5.80;2.95;;;25.90;66.90;;;;;;4879948;29;20067;-82
2022/05/04 11:46:43;;;;;;;5.88;2.85;;;25.60;67.30;;;;;;4879277;29;20029;-82
2022/05/04 11:49:11;;;;;;;8.55;2.83;;;25.90;67.20;;;;;;4887655;29;20169;-82
2022/05/04 11:51:37;;;;;;;6.30;2.95;;;26.20;66.70;;;;;;4890660;29;20013;-83
2022/05/04 11:54:06;;;;;;;6.85;2.75;;;26.50;66.90;;;;;;4890023;29;20117;-82
2022/05/04 11:56:37;;;;;;;7.80;2.42;;;26.80;66.50;;;;;;4872027;29;20033;-83
2022/05/04 11:59:03;;;;;;;3.55;2.17;;;27.10;65.70;;;;;;4875695;29;20036;-83
2022/05/04 12:01:29;;;;;;;8.48;3.33;;;27.20;66.50;;;;;;4890021;29;20017;-84
2022/05/04 12:03:56;;;;;;;5.75;2.50;;;27.30;64.40;;;;;;4890345;29;20479;-83
2022/05/04 12:06:22;;;;;;;5.05;3.08;;;27.30;64.80;;;;;;4887804;29;20045;-83
2022/05/04 12:08:48;;;;;;;6.47;2.53;;;27.40;63.20;;;;;;4888228;29;20045;-83
2022/05/04 12:11:16;;;;;;;7.45;3.30;;;27.30;63.50;;;;;;4890057;29;20021;-83
2022/05/04 12:13:42;;;;;;;8.20;3.05;;;27.50;64.30;;;;;;4888913;29;20040;-83
2022/05/04 12:16:10;;;;;;;7.95;2.90;;;27.40;62.80;;;;;;4879620;29;20029;-84
2022/05/04 12:18:38;;;;;;;8.73;3.97;;;27.40;63.00;;;;;;4878584;29;20029;-84
2022/05/04 12:21:12;;;;;;;8.02;3.28;;;27.50;61.90;;;;;;4889851;29;20081;-83
2022/05/04 12:23:43;;;;;;;4.75;2.40;;;27.40;61.90;;;;;;4869576;29;20051;-83
2022/05/04 12:26:10;;;;;;;6.10;2.92;;;27.40;63.40;;;;;;4880855;29;20869;-81
2022/05/04 12:28:41;;;;;;;5.40;3.10;;;27.30;63.10;;;;;;4875243;29;20056;-82
2022/05/04 12:33:54;;;;;;;5.20;2.38;;;27.30;63.20;;;;;;4876233;29;20504;-82
2022/05/04 12:36:23;;;;;;;5.35;3.08;;;27.60;63.40;;;;;;4876616;29;20057;-82
2022/05/04 12:38:51;;;;;;;6.15;3.20;;;27.60;62.40;;;;;;4885705;29;20080;-82
2022/05/04 12:41:21;;;;;;;7.55;3.90;;;27.30;61.20;;;;;;4875784;29;20532;-82
2022/05/04 12:43:49;;;;;;;9.40;3.60;;;27.00;61.80;;;;;;4863481;29;20029;-82
2022/05/04 12:46:16;;;;;;;7.25;3.17;;;27.10;63.30;;;;;;4886423;29;20040;-82
2022/05/04 12:48:44;;;;;;;7.53;3.58;;;27.30;62.10;;;;;;4886005;29;20065;-81
2022/05/04 12:51:12;;;;;;;7.03;3.10;;;27.40;61.60;;;;;;4887733;29;20041;-82
2022/05/04 12:53:38;;;;;;;9.00;3.78;;;27.40;61.50;;;;;;4877927;29;20060;-82
2022/05/04 12:58:54;;;;;;;6.75;2.92;;;27.70;62.10;;;;;;4878790;29;20040;-83
2022/05/04 13:01:27;;;;;;;4.43;2.70;;;27.70;60.60;;;;;;4881537;29;20439;-83
2022/05/04 13:03:53;;;;;;;7.68;3.13;;;27.60;59.70;;;;;;4877643;29;20096;-84
2022/05/04 13:06:22;;;;;;;4.82;2.45;;;27.50;58.90;;;;;;4889697;29;20085;-83
2022/05/04 13:08:48;;;;;;;4.85;2.60;;;27.60;58.90;;;;;;4864916;29;20181;-83
2022/05/04 13:11:18;;;;;;;4.10;2.25;;;27.90;60.00;;;;;;4878162;29;20077;-82
2022/05/04 13:13:45;;;;;;;4.88;2.65;;;28.20;59.20;;;;;;4876249;29;20120;-83
2022/05/04 13:16:11;;;;;;;6.90;2.40;;;28.40;58.20;;;;;;4876167;29;20523;-84
2022/05/04 13:18:38;;;;;;;6.97;3.08;;;28.50;58.20;;;;;;4883448;29;20021;-83
2022/05/04 13:21:06;;;;;;;5.63;2.75;;;28.70;57.20;;;;;;4878510;29;20081;-83
2022/05/04 13:23:32;;;;;;;4.45;2.17;;;28.60;57.50;;;;;;4881265;29;20755;-83
2022/05/04 13:25:58;;;;;;;10.20;3.40;;;28.70;57.70;;;;;;4886382;29;20025;-83
2022/05/04 13:28:25;;;;;;;4.93;2.67;;;28.80;57.50;;;;;;4887614;29;20037;-83
2022/05/04 13:30:50;;;;;;;4.82;2.70;;;28.60;57.70;;;;;;4882039;29;20025;-84
2022/05/04 13:33:16;;;;;;;4.03;2.38;;;28.40;57.30;;;;;;4889500;29;20040;-84
2022/05/04 13:35:42;;;;;;;5.38;2.22;;;28.50;58.20;;;;;;4880559;29;20049;-84